sensor_id;sensor_type;location;lat;lon;timestamp;temperature;humidity
11055;DHT22;5580;50.106;8.702;2023-05-14T00:01:46;15.70;99.90
11055;DHT22;5580;50.106;8.702;2023-05-14T00:04:12;15.70;99.90
11055;DHT22;5580;50.106;8.702;2023-05-14T00:06:38;15.70;99.90
11055;DHT22;5580;50.106;8.702;2023-05-14T00:09:03;15.70;99.90
11055;DHT22;5580;50.106;8.702;2023-05-14T00:11:29;15.70;99.90
11055;DHT22;5580;50.106;8.702;2023-05-14T00:13:54;15.70;99.90
11055;DHT22;5580;50.106;8.702;2023-05-14T00:16:20;15.60;99.90
11055;DHT22;5580;50.106;8.702;2023-05-14T00:18:46;15.60;99.90
11055;DHT22;5580;50.106;8.702;2023-05-14T00:21:11;15.60;99.90
11055;DHT22;5580;50.106;8.702;2023-05-14T00:23:37;15.50;99.90
11055;DHT22;5580;50.106;8.702;2023-05-14T00:26:03;15.40;99.90
11055;DHT22;5580;50.106;8.702;2023-05-14T00:28:28;15.30;99.90
11055;DHT22;5580;50.106;8.702;2023-05-14T00:30:54;15.30;99.90
11055;DHT22;5580;50.106;8.702;2023-05-14T00:33:21;15.30;99.90
11055;DHT22;5580;50.106;8.702;2023-05-14T00:35:47;15.20;99.90
11055;DHT22;5580;50.106;8.702;2023-05-14T00:38:13;15.30;99.90
11055;DHT22;5580;50.106;8.702;2023-05-14T00:40:42;15.30;99.90
11055;DHT22;5580;50.106;8.702;2023-05-14T00:43:10;15.20;99.90
11055;DHT22;5580;50.106;8.702;2023-05-14T00:45:36;15.10;99.90
11055;DHT22;5580;50.106;8.702;2023-05-14T00:48:02;15.10;99.90
11055;DHT22;5580;50.106;8.702;2023-05-14T00:50:28;15.00;99.90
11055;DHT22;5580;50.106;8.702;2023-05-14T00:52:54;14.90;99.90
11055;DHT22;5580;50.106;8.702;2023-05-14T00:55:20;14.80;99.90
11055;DHT22;5580;50.106;8.702;2023-05-14T00:57:46;14.70;99.90
11055;DHT22;5580;50.106;8.702;2023-05-14T01:00:12;14.70;99.90
11055;DHT22;5580;50.106;8.702;2023-05-14T01:02:38;14.70;99.90
11055;DHT22;5580;50.106;8.702;2023-05-14T01:05:04;14.60;99.90
11055;DHT22;5580;50.106;8.702;2023-05-14T01:10:38;14.60;99.90
11055;DHT22;5580;50.106;8.702;2023-05-14T01:13:23;14.60;99.90
11055;DHT22;5580;50.106;8.702;2023-05-14T01:15:54;14.70;99.90
11055;DHT22;5580;50.106;8.702;2023-05-14T01:18:21;14.70;99.90
11055;DHT22;5580;50.106;8.702;2023-05-14T01:20:49;14.70;99.90
11055;DHT22;5580;50.106;8.702;2023-05-14T01:23:16;14.70;99.90
11055;DHT22;5580;50.106;8.702;2023-05-14T01:25:42;14.50;99.90
11055;DHT22;5580;50.106;8.702;2023-05-14T01:28:18;14.50;99.90
11055;DHT22;5580;50.106;8.702;2023-05-14T01:31:04;14.40;99.90
11055;DHT22;5580;50.106;8.702;2023-05-14T01:33:32;14.40;99.90
11055;DHT22;5580;50.106;8.702;2023-05-14T01:35:59;14.30;99.90
11055;DHT22;5580;50.106;8.702;2023-05-14T01:38:26;14.20;99.90
11055;DHT22;5580;50.106;8.702;2023-05-14T01:40:55;14.20;99.90
11055;DHT22;5580;50.106;8.702;2023-05-14T01:43:21;14.10;99.90
11055;DHT22;5580;50.106;8.702;2023-05-14T01:45:47;14.10;99.90
11055;DHT22;5580;50.106;8.702;2023-05-14T01:48:14;14.20;99.90
11055;DHT22;5580;50.106;8.702;2023-05-14T01:50:40;14.20;99.90
11055;DHT22;5580;50.106;8.702;2023-05-14T01:53:05;14.20;99.90
11055;DHT22;5580;50.106;8.702;2023-05-14T01:55:31;14.20;99.90
11055;DHT22;5580;50.106;8.702;2023-05-14T01:57:57;14.30;99.90
11055;DHT22;5580;50.106;8.702;2023-05-14T02:00:23;14.30;99.90
11055;DHT22;5580;50.106;8.702;2023-05-14T02:02:52;14.40;99.90
11055;DHT22;5580;50.106;8.702;2023-05-14T02:05:18;14.30;99.90
11055;DHT22;5580;50.106;8.702;2023-05-14T02:07:43;14.30;99.90
11055;DHT22;5580;50.106;8.702;2023-05-14T02:10:09;14.30;99.90
11055;DHT22;5580;50.106;8.702;2023-05-14T02:12:35;14.20;99.90
11055;DHT22;5580;50.106;8.702;2023-05-14T02:15:02;14.20;99.90
11055;DHT22;5580;50.106;8.702;2023-05-14T02:17:28;14.20;99.90
11055;DHT22;5580;50.106;8.702;2023-05-14T02:19:53;14.30;99.90
11055;DHT22;5580;50.106;8.702;2023-05-14T02:22:19;14.30;99.90
11055;DHT22;5580;50.106;8.702;2023-05-14T02:24:45;14.20;99.90
11055;DHT22;5580;50.106;8.702;2023-05-14T02:27:10;14.20;99.90
11055;DHT22;5580;50.106;8.702;2023-05-14T02:29:37;14.20;99.90
11055;DHT22;5580;50.106;8.702;2023-05-14T02:32:03;14.30;99.90
11055;DHT22;5580;50.106;8.702;2023-05-14T02:34:29;14.30;99.90
11055;DHT22;5580;50.106;8.702;2023-05-14T02:36:54;14.30;99.90
11055;DHT22;5580;50.106;8.702;2023-05-14T02:39:20;14.30;99.90
11055;DHT22;5580;50.106;8.702;2023-05-14T02:41:46;14.40;99.90
11055;DHT22;5580;50.106;8.702;2023-05-14T02:44:11;14.40;99.90
11055;DHT22;5580;50.106;8.702;2023-05-14T02:46:37;14.40;99.90
11055;DHT22;5580;50.106;8.702;2023-05-14T02:49:02;14.40;99.90
11055;DHT22;5580;50.106;8.702;2023-05-14T02:51:28;14.40;99.90
11055;DHT22;5580;50.106;8.702;2023-05-14T02:53:53;14.40;99.90
11055;DHT22;5580;50.106;8.702;2023-05-14T02:56:19;14.50;99.90
11055;DHT22;5580;50.106;8.702;2023-05-14T02:58:45;14.50;99.90
11055;DHT22;5580;50.106;8.702;2023-05-14T03:01:10;14.30;99.90
11055;DHT22;5580;50.106;8.702;2023-05-14T03:03:36;14.20;99.90
11055;DHT22;5580;50.106;8.702;2023-05-14T03:06:03;14.00;99.90
11055;DHT22;5580;50.106;8.702;2023-05-14T03:08:28;14.00;99.90
11055;DHT22;5580;50.106;8.702;2023-05-14T03:10:54;14.00;99.90
11055;DHT22;5580;50.106;8.702;2023-05-14T03:13:20;13.90;99.90
11055;DHT22;5580;50.106;8.702;2023-05-14T03:15:46;13.80;99.90
11055;DHT22;5580;50.106;8.702;2023-05-14T03:18:12;13.80;99.90
11055;DHT22;5580;50.106;8.702;2023-05-14T03:20:38;13.80;99.90
11055;DHT22;5580;50.106;8.702;2023-05-14T03:23:04;13.80;99.90
11055;DHT22;5580;50.106;8.702;2023-05-14T03:25:29;13.70;99.90
11055;DHT22;5580;50.106;8.702;2023-05-14T03:27:55;13.60;99.90
11055;DHT22;5580;50.106;8.702;2023-05-14T03:30:21;13.50;99.90
11055;DHT22;5580;50.106;8.702;2023-05-14T03:32:46;13.50;99.90
11055;DHT22;5580;50.106;8.702;2023-05-14T03:35:12;13.40;99.90
11055;DHT22;5580;50.106;8.702;2023-05-14T03:37:37;13.40;99.90
11055;DHT22;5580;50.106;8.702;2023-05-14T03:40:03;13.30;99.90
11055;DHT22;5580;50.106;8.702;2023-05-14T03:42:29;13.30;99.90
11055;DHT22;5580;50.106;8.702;2023-05-14T03:44:55;13.20;99.90
11055;DHT22;5580;50.106;8.702;2023-05-14T03:47:20;13.30;99.90
11055;DHT22;5580;50.106;8.702;2023-05-14T03:49:46;13.30;99.90
11055;DHT22;5580;50.106;8.702;2023-05-14T03:52:11;13.30;99.90
11055;DHT22;5580;50.106;8.702;2023-05-14T03:54:37;13.40;99.90
11055;DHT22;5580;50.106;8.702;2023-05-14T03:57:03;13.40;99.90
11055;DHT22;5580;50.106;8.702;2023-05-14T03:59:29;13.30;99.90
11055;DHT22;5580;50.106;8.702;2023-05-14T04:01:54;13.30;99.90
11055;DHT22;5580;50.106;8.702;2023-05-14T04:04:20;13.30;99.90
11055;DHT22;5580;50.106;8.702;2023-05-14T04:06:45;13.30;99.90
11055;DHT22;5580;50.106;8.702;2023-05-14T04:09:11;13.30;99.90
11055;DHT22;5580;50.106;8.702;2023-05-14T04:11:37;13.30;99.90
11055;DHT22;5580;50.106;8.702;2023-05-14T04:14:02;13.40;99.90
11055;DHT22;5580;50.106;8.702;2023-05-14T04:16:28;13.30;99.90
11055;DHT22;5580;50.106;8.702;2023-05-14T04:18:53;13.30;99.90
11055;DHT22;5580;50.106;8.702;2023-05-14T04:21:19;13.40;99.90
11055;DHT22;5580;50.106;8.702;2023-05-14T04:23:45;13.30;99.90
11055;DHT22;5580;50.106;8.702;2023-05-14T04:26:10;13.30;99.90
11055;DHT22;5580;50.106;8.702;2023-05-14T04:28:36;13.30;99.90
11055;DHT22;5580;50.106;8.702;2023-05-14T04:31:01;13.20;99.90
11055;DHT22;5580;50.106;8.702;2023-05-14T04:33:28;13.10;99.90
11055;DHT22;5580;50.106;8.702;2023-05-14T04:35:53;13.00;99.90
11055;DHT22;5580;50.106;8.702;2023-05-14T04:38:19;13.00;99.90
11055;DHT22;5580;50.106;8.702;2023-05-14T04:40:44;13.00;99.90
11055;DHT22;5580;50.106;8.702;2023-05-14T04:43:10;13.00;99.90
11055;DHT22;5580;50.106;8.702;2023-05-14T04:45:36;12.90;99.90
11055;DHT22;5580;50.106;8.702;2023-05-14T04:48:02;13.00;99.90
11055;DHT22;5580;50.106;8.702;2023-05-14T04:50:28;13.10;99.90
11055;DHT22;5580;50.106;8.702;2023-05-14T04:52:54;13.20;99.90
11055;DHT22;5580;50.106;8.702;2023-05-14T04:55:20;13.10;99.90
11055;DHT22;5580;50.106;8.702;2023-05-14T04:57:46;13.00;99.90
11055;DHT22;5580;50.106;8.702;2023-05-14T05:00:12;13.00;99.90
11055;DHT22;5580;50.106;8.702;2023-05-14T05:02:37;12.90;99.90
11055;DHT22;5580;50.106;8.702;2023-05-14T05:05:03;13.00;99.90
11055;DHT22;5580;50.106;8.702;2023-05-14T05:07:29;13.10;99.90
11055;DHT22;5580;50.106;8.702;2023-05-14T05:09:54;13.10;99.90
11055;DHT22;5580;50.106;8.702;2023-05-14T05:12:20;13.20;99.90
11055;DHT22;5580;50.106;8.702;2023-05-14T05:14:46;13.30;99.90
11055;DHT22;5580;50.106;8.702;2023-05-14T05:17:11;13.30;99.90
11055;DHT22;5580;50.106;8.702;2023-05-14T05:19:37;13.30;99.90
11055;DHT22;5580;50.106;8.702;2023-05-14T05:22:03;13.30;99.90
11055;DHT22;5580;50.106;8.702;2023-05-14T05:24:29;13.30;99.90
11055;DHT22;5580;50.106;8.702;2023-05-14T05:26:54;13.30;99.90
11055;DHT22;5580;50.106;8.702;2023-05-14T05:29:21;13.20;99.90
11055;DHT22;5580;50.106;8.702;2023-05-14T05:31:47;13.20;99.90
11055;DHT22;5580;50.106;8.702;2023-05-14T05:34:13;13.10;99.90
11055;DHT22;5580;50.106;8.702;2023-05-14T05:36:38;13.10;99.90
11055;DHT22;5580;50.106;8.702;2023-05-14T05:39:04;13.20;99.90
11055;DHT22;5580;50.106;8.702;2023-05-14T05:41:30;13.30;99.90
11055;DHT22;5580;50.106;8.702;2023-05-14T05:43:56;13.40;99.90
11055;DHT22;5580;50.106;8.702;2023-05-14T05:46:21;13.50;99.90
11055;DHT22;5580;50.106;8.702;2023-05-14T05:48:47;13.70;99.90
11055;DHT22;5580;50.106;8.702;2023-05-14T05:51:12;13.90;99.90
11055;DHT22;5580;50.106;8.702;2023-05-14T05:53:38;14.00;99.90
11055;DHT22;5580;50.106;8.702;2023-05-14T05:56:04;14.10;99.90
11055;DHT22;5580;50.106;8.702;2023-05-14T05:58:30;14.30;99.90
11055;DHT22;5580;50.106;8.702;2023-05-14T06:00:56;14.30;99.90
11055;DHT22;5580;50.106;8.702;2023-05-14T06:03:22;14.40;99.90
11055;DHT22;5580;50.106;8.702;2023-05-14T06:05:48;14.50;99.90
11055;DHT22;5580;50.106;8.702;2023-05-14T06:08:13;14.60;99.90
11055;DHT22;5580;50.106;8.702;2023-05-14T06:10:39;14.60;99.90
11055;DHT22;5580;50.106;8.702;2023-05-14T06:13:04;14.60;99.90
11055;DHT22;5580;50.106;8.702;2023-05-14T06:15:31;14.60;99.90
11055;DHT22;5580;50.106;8.702;2023-05-14T06:17:56;14.60;99.90
11055;DHT22;5580;50.106;8.702;2023-05-14T06:20:22;14.60;99.90
11055;DHT22;5580;50.106;8.702;2023-05-14T06:22:47;14.60;99.90
11055;DHT22;5580;50.106;8.702;2023-05-14T06:25:13;14.50;99.90
11055;DHT22;5580;50.106;8.702;2023-05-14T06:27:39;14.60;99.90
11055;DHT22;5580;50.106;8.702;2023-05-14T06:30:05;14.60;99.90
11055;DHT22;5580;50.106;8.702;2023-05-14T06:32:31;14.50;99.90
11055;DHT22;5580;50.106;8.702;2023-05-14T06:34:57;14.50;99.90
11055;DHT22;5580;50.106;8.702;2023-05-14T06:37:22;14.50;99.90
11055;DHT22;5580;50.106;8.702;2023-05-14T06:39:48;14.40;99.90
11055;DHT22;5580;50.106;8.702;2023-05-14T06:42:16;14.50;99.90
11055;DHT22;5580;50.106;8.702;2023-05-14T06:44:42;14.50;99.90
11055;DHT22;5580;50.106;8.702;2023-05-14T06:47:08;14.50;99.90
11055;DHT22;5580;50.106;8.702;2023-05-14T06:49:34;14.60;99.90
11055;DHT22;5580;50.106;8.702;2023-05-14T06:52:00;14.60;99.90
11055;DHT22;5580;50.106;8.702;2023-05-14T06:54:25;14.60;99.90
11055;DHT22;5580;50.106;8.702;2023-05-14T06:56:51;14.60;99.90
11055;DHT22;5580;50.106;8.702;2023-05-14T06:59:16;14.60;99.90
11055;DHT22;5580;50.106;8.702;2023-05-14T07:01:42;14.60;99.90
11055;DHT22;5580;50.106;8.702;2023-05-14T07:04:08;14.60;99.90
11055;DHT22;5580;50.106;8.702;2023-05-14T07:06:33;14.70;99.90
11055;DHT22;5580;50.106;8.702;2023-05-14T07:09:00;14.80;99.90
11055;DHT22;5580;50.106;8.702;2023-05-14T07:11:26;14.80;99.90
11055;DHT22;5580;50.106;8.702;2023-05-14T07:13:51;14.80;99.90
11055;DHT22;5580;50.106;8.702;2023-05-14T07:16:17;14.80;99.90
11055;DHT22;5580;50.106;8.702;2023-05-14T07:18:44;14.90;99.90
11055;DHT22;5580;50.106;8.702;2023-05-14T07:21:10;14.90;99.90
11055;DHT22;5580;50.106;8.702;2023-05-14T07:23:35;15.10;99.90
11055;DHT22;5580;50.106;8.702;2023-05-14T07:26:06;15.10;99.90
11055;DHT22;5580;50.106;8.702;2023-05-14T07:28:32;15.20;99.90
11055;DHT22;5580;50.106;8.702;2023-05-14T07:30:58;15.40;99.90
11055;DHT22;5580;50.106;8.702;2023-05-14T07:33:24;15.60;99.90
11055;DHT22;5580;50.106;8.702;2023-05-14T07:35:50;15.80;99.90
11055;DHT22;5580;50.106;8.702;2023-05-14T07:38:16;16.00;99.90
11055;DHT22;5580;50.106;8.702;2023-05-14T07:40:42;16.10;99.90
11055;DHT22;5580;50.106;8.702;2023-05-14T07:43:08;16.20;99.90
11055;DHT22;5580;50.106;8.702;2023-05-14T07:45:35;16.30;99.90
11055;DHT22;5580;50.106;8.702;2023-05-14T07:48:01;16.40;99.90
11055;DHT22;5580;50.106;8.702;2023-05-14T07:50:26;16.40;99.90
11055;DHT22;5580;50.106;8.702;2023-05-14T07:52:52;16.40;99.90
11055;DHT22;5580;50.106;8.702;2023-05-14T07:55:17;16.50;99.90
11055;DHT22;5580;50.106;8.702;2023-05-14T07:57:43;16.70;99.90
11055;DHT22;5580;50.106;8.702;2023-05-14T08:00:10;16.80;99.90
11055;DHT22;5580;50.106;8.702;2023-05-14T08:02:36;16.90;99.90
11055;DHT22;5580;50.106;8.702;2023-05-14T08:05:02;17.20;99.90
11055;DHT22;5580;50.106;8.702;2023-05-14T08:07:28;17.30;99.90
11055;DHT22;5580;50.106;8.702;2023-05-14T08:09:54;17.40;99.90
11055;DHT22;5580;50.106;8.702;2023-05-14T08:12:20;17.50;99.90
11055;DHT22;5580;50.106;8.702;2023-05-14T08:14:46;17.60;99.90
11055;DHT22;5580;50.106;8.702;2023-05-14T08:17:11;17.60;99.90
11055;DHT22;5580;50.106;8.702;2023-05-14T08:19:37;17.70;99.90
11055;DHT22;5580;50.106;8.702;2023-05-14T08:22:02;17.80;99.90
11055;DHT22;5580;50.106;8.702;2023-05-14T08:24:28;17.70;99.90
11055;DHT22;5580;50.106;8.702;2023-05-14T08:26:54;17.70;99.90
11055;DHT22;5580;50.106;8.702;2023-05-14T08:29:20;17.60;99.90
11055;DHT22;5580;50.106;8.702;2023-05-14T08:31:47;17.40;99.90
11055;DHT22;5580;50.106;8.702;2023-05-14T08:34:12;17.50;99.90
11055;DHT22;5580;50.106;8.702;2023-05-14T08:36:38;17.50;99.90
11055;DHT22;5580;50.106;8.702;2023-05-14T08:39:03;17.50;99.90
11055;DHT22;5580;50.106;8.702;2023-05-14T08:41:31;17.50;99.90
11055;DHT22;5580;50.106;8.702;2023-05-14T08:44:12;17.60;99.90
11055;DHT22;5580;50.106;8.702;2023-05-14T08:46:38;17.50;99.90
11055;DHT22;5580;50.106;8.702;2023-05-14T08:52:17;17.60;99.90
11055;DHT22;5580;50.106;8.702;2023-05-14T08:54:45;17.70;99.90
11055;DHT22;5580;50.106;8.702;2023-05-14T08:57:13;17.70;99.90
11055;DHT22;5580;50.106;8.702;2023-05-14T08:59:39;17.70;99.90
11055;DHT22;5580;50.106;8.702;2023-05-14T09:02:05;17.70;99.90
11055;DHT22;5580;50.106;8.702;2023-05-14T09:04:32;17.70;99.90
11055;DHT22;5580;50.106;8.702;2023-05-14T09:07:00;17.90;99.90
11055;DHT22;5580;50.106;8.702;2023-05-14T09:09:26;18.00;99.90
11055;DHT22;5580;50.106;8.702;2023-05-14T09:11:53;18.10;99.90
11055;DHT22;5580;50.106;8.702;2023-05-14T09:14:19;18.20;99.90
11055;DHT22;5580;50.106;8.702;2023-05-14T09:16:46;18.20;99.90
11055;DHT22;5580;50.106;8.702;2023-05-14T09:19:12;18.10;99.90
11055;DHT22;5580;50.106;8.702;2023-05-14T09:21:39;17.90;99.90
11055;DHT22;5580;50.106;8.702;2023-05-14T09:24:05;17.80;99.90
11055;DHT22;5580;50.106;8.702;2023-05-14T09:26:32;17.80;99.90
11055;DHT22;5580;50.106;8.702;2023-05-14T09:28:59;17.70;99.90
11055;DHT22;5580;50.106;8.702;2023-05-14T09:31:32;17.70;99.90
11055;DHT22;5580;50.106;8.702;2023-05-14T09:33:58;17.70;99.90
11055;DHT22;5580;50.106;8.702;2023-05-14T09:36:25;17.60;99.90
11055;DHT22;5580;50.106;8.702;2023-05-14T09:38:56;17.60;99.90
11055;DHT22;5580;50.106;8.702;2023-05-14T09:41:22;17.60;99.90
11055;DHT22;5580;50.106;8.702;2023-05-14T09:43:51;17.60;99.90
11055;DHT22;5580;50.106;8.702;2023-05-14T09:46:17;17.80;99.90
11055;DHT22;5580;50.106;8.702;2023-05-14T09:48:44;17.80;99.90
11055;DHT22;5580;50.106;8.702;2023-05-14T09:51:10;17.90;99.90
11055;DHT22;5580;50.106;8.702;2023-05-14T09:53:36;18.00;99.90
11055;DHT22;5580;50.106;8.702;2023-05-14T09:56:01;17.90;99.90
11055;DHT22;5580;50.106;8.702;2023-05-14T09:58:27;17.70;99.90
11055;DHT22;5580;50.106;8.702;2023-05-14T10:00:54;17.60;99.90
11055;DHT22;5580;50.106;8.702;2023-05-14T10:03:24;17.50;99.90
11055;DHT22;5580;50.106;8.702;2023-05-14T10:05:50;17.50;99.90
11055;DHT22;5580;50.106;8.702;2023-05-14T10:08:35;17.60;99.90
11055;DHT22;5580;50.106;8.702;2023-05-14T10:11:07;17.70;99.90
11055;DHT22;5580;50.106;8.702;2023-05-14T10:13:39;17.70;99.90
11055;DHT22;5580;50.106;8.702;2023-05-14T10:16:23;17.60;99.90
11055;DHT22;5580;50.106;8.702;2023-05-14T10:18:56;17.70;99.90
11055;DHT22;5580;50.106;8.702;2023-05-14T10:21:25;17.60;99.90
11055;DHT22;5580;50.106;8.702;2023-05-14T10:23:53;17.60;99.90
11055;DHT22;5580;50.106;8.702;2023-05-14T10:26:19;17.60;99.90
11055;DHT22;5580;50.106;8.702;2023-05-14T10:28:45;17.60;99.90
11055;DHT22;5580;50.106;8.702;2023-05-14T10:31:11;17.60;99.90
11055;DHT22;5580;50.106;8.702;2023-05-14T10:33:46;17.60;99.90
11055;DHT22;5580;50.106;8.702;2023-05-14T10:36:13;17.70;99.90
11055;DHT22;5580;50.106;8.702;2023-05-14T10:38:39;17.60;99.90
11055;DHT22;5580;50.106;8.702;2023-05-14T10:41:09;17.70;99.90
11055;DHT22;5580;50.106;8.702;2023-05-14T10:43:37;17.70;99.90
11055;DHT22;5580;50.106;8.702;2023-05-14T10:46:03;17.70;99.90
11055;DHT22;5580;50.106;8.702;2023-05-14T10:48:29;17.70;99.90
11055;DHT22;5580;50.106;8.702;2023-05-14T10:50:56;17.90;99.90
11055;DHT22;5580;50.106;8.702;2023-05-14T10:53:41;17.90;99.90
11055;DHT22;5580;50.106;8.702;2023-05-14T10:56:11;18.00;99.90
11055;DHT22;5580;50.106;8.702;2023-05-14T10:58:41;18.00;99.90
11055;DHT22;5580;50.106;8.702;2023-05-14T11:01:10;18.10;99.90
11055;DHT22;5580;50.106;8.702;2023-05-14T11:03:43;18.10;99.90
11055;DHT22;5580;50.106;8.702;2023-05-14T11:06:10;18.10;99.90
11055;DHT22;5580;50.106;8.702;2023-05-14T11:08:37;18.10;99.90
11055;DHT22;5580;50.106;8.702;2023-05-14T11:11:04;18.10;99.90
11055;DHT22;5580;50.106;8.702;2023-05-14T11:13:30;18.10;99.90
11055;DHT22;5580;50.106;8.702;2023-05-14T11:15:57;18.10;99.90
11055;DHT22;5580;50.106;8.702;2023-05-14T11:18:27;18.10;99.90
11055;DHT22;5580;50.106;8.702;2023-05-14T11:20:56;18.10;99.90
11055;DHT22;5580;50.106;8.702;2023-05-14T11:23:23;18.20;99.90
11055;DHT22;5580;50.106;8.702;2023-05-14T11:25:54;18.20;99.90
11055;DHT22;5580;50.106;8.702;2023-05-14T11:28:24;18.30;99.90
11055;DHT22;5580;50.106;8.702;2023-05-14T11:30:50;18.40;99.90
11055;DHT22;5580;50.106;8.702;2023-05-14T11:33:17;18.50;99.90
11055;DHT22;5580;50.106;8.702;2023-05-14T11:35:44;18.60;99.90
11055;DHT22;5580;50.106;8.702;2023-05-14T11:38:17;18.70;99.90
11055;DHT22;5580;50.106;8.702;2023-05-14T11:40:57;18.70;99.90
11055;DHT22;5580;50.106;8.702;2023-05-14T11:43:23;18.80;99.90
11055;DHT22;5580;50.106;8.702;2023-05-14T11:45:52;18.80;99.90
11055;DHT22;5580;50.106;8.702;2023-05-14T11:48:22;18.80;99.90
11055;DHT22;5580;50.106;8.702;2023-05-14T11:50:52;18.90;99.90
11055;DHT22;5580;50.106;8.702;2023-05-14T11:53:17;18.90;99.90
11055;DHT22;5580;50.106;8.702;2023-05-14T11:55:44;18.80;99.90
11055;DHT22;5580;50.106;8.702;2023-05-14T11:58:10;18.80;99.90
11055;DHT22;5580;50.106;8.702;2023-05-14T12:00:37;18.80;99.90
11055;DHT22;5580;50.106;8.702;2023-05-14T12:03:02;18.80;99.90
11055;DHT22;5580;50.106;8.702;2023-05-14T12:05:28;18.70;99.90
11055;DHT22;5580;50.106;8.702;2023-05-14T12:07:53;18.60;99.90
11055;DHT22;5580;50.106;8.702;2023-05-14T12:10:20;18.50;99.90
11055;DHT22;5580;50.106;8.702;2023-05-14T12:12:47;18.50;99.90
11055;DHT22;5580;50.106;8.702;2023-05-14T12:15:13;18.50;99.90
11055;DHT22;5580;50.106;8.702;2023-05-14T12:17:39;18.50;99.90
11055;DHT22;5580;50.106;8.702;2023-05-14T12:20:08;18.60;99.90
11055;DHT22;5580;50.106;8.702;2023-05-14T12:22:35;18.60;99.90
11055;DHT22;5580;50.106;8.702;2023-05-14T12:25:00;18.60;99.90
11055;DHT22;5580;50.106;8.702;2023-05-14T12:27:27;18.60;99.90
11055;DHT22;5580;50.106;8.702;2023-05-14T12:30:01;18.60;99.90
11055;DHT22;5580;50.106;8.702;2023-05-14T12:32:31;18.50;99.90
11055;DHT22;5580;50.106;8.702;2023-05-14T12:34:56;18.50;99.90
11055;DHT22;5580;50.106;8.702;2023-05-14T12:37:22;18.60;99.90
11055;DHT22;5580;50.106;8.702;2023-05-14T12:39:47;18.70;99.90
11055;DHT22;5580;50.106;8.702;2023-05-14T12:42:14;18.70;99.90
11055;DHT22;5580;50.106;8.702;2023-05-14T12:44:40;18.70;99.90
11055;DHT22;5580;50.106;8.702;2023-05-14T12:47:06;18.70;99.90
11055;DHT22;5580;50.106;8.702;2023-05-14T12:49:32;18.70;99.90
11055;DHT22;5580;50.106;8.702;2023-05-14T12:51:57;18.70;99.90
11055;DHT22;5580;50.106;8.702;2023-05-14T12:54:23;18.60;99.90
11055;DHT22;5580;50.106;8.702;2023-05-14T12:56:48;18.60;99.90
11055;DHT22;5580;50.106;8.702;2023-05-14T12:59:14;18.50;99.90
11055;DHT22;5580;50.106;8.702;2023-05-14T13:01:40;18.50;99.90
11055;DHT22;5580;50.106;8.702;2023-05-14T13:04:06;18.50;99.90
11055;DHT22;5580;50.106;8.702;2023-05-14T13:06:33;18.50;99.90
11055;DHT22;5580;50.106;8.702;2023-05-14T13:08:58;18.50;99.90
11055;DHT22;5580;50.106;8.702;2023-05-14T13:11:26;18.50;99.90
11055;DHT22;5580;50.106;8.702;2023-05-14T13:13:54;18.60;99.90
11055;DHT22;5580;50.106;8.702;2023-05-14T13:16:20;18.60;99.90
11055;DHT22;5580;50.106;8.702;2023-05-14T13:18:45;18.50;99.90
11055;DHT22;5580;50.106;8.702;2023-05-14T13:21:11;18.50;99.90
11055;DHT22;5580;50.106;8.702;2023-05-14T13:23:37;18.60;99.90
11055;DHT22;5580;50.106;8.702;2023-05-14T13:26:03;18.70;99.90
11055;DHT22;5580;50.106;8.702;2023-05-14T13:28:28;18.80;99.90
11055;DHT22;5580;50.106;8.702;2023-05-14T13:31:10;18.80;99.90
11055;DHT22;5580;50.106;8.702;2023-05-14T13:33:39;18.80;99.90
11055;DHT22;5580;50.106;8.702;2023-05-14T13:36:05;18.80;99.90
11055;DHT22;5580;50.106;8.702;2023-05-14T13:38:33;18.90;99.90
11055;DHT22;5580;50.106;8.702;2023-05-14T13:40:58;18.90;99.90
11055;DHT22;5580;50.106;8.702;2023-05-14T13:43:30;18.80;99.90
11055;DHT22;5580;50.106;8.702;2023-05-14T13:45:56;18.80;99.90
11055;DHT22;5580;50.106;8.702;2023-05-14T13:48:22;18.80;99.90
11055;DHT22;5580;50.106;8.702;2023-05-14T13:50:48;18.90;99.90
11055;DHT22;5580;50.106;8.702;2023-05-14T13:53:14;18.90;99.90
11055;DHT22;5580;50.106;8.702;2023-05-14T13:55:39;19.00;99.90
11055;DHT22;5580;50.106;8.702;2023-05-14T13:58:05;19.00;99.90
11055;DHT22;5580;50.106;8.702;2023-05-14T14:00:31;19.00;99.90
11055;DHT22;5580;50.106;8.702;2023-05-14T14:02:57;19.00;99.90
11055;DHT22;5580;50.106;8.702;2023-05-14T14:05:22;19.00;99.90
11055;DHT22;5580;50.106;8.702;2023-05-14T14:07:55;19.00;99.90
11055;DHT22;5580;50.106;8.702;2023-05-14T14:10:21;19.00;99.90
11055;DHT22;5580;50.106;8.702;2023-05-14T14:12:47;19.10;99.90
11055;DHT22;5580;50.106;8.702;2023-05-14T14:15:13;19.20;99.90
11055;DHT22;5580;50.106;8.702;2023-05-14T14:17:38;19.20;99.90
11055;DHT22;5580;50.106;8.702;2023-05-14T14:20:08;19.30;99.90
11055;DHT22;5580;50.106;8.702;2023-05-14T14:22:34;19.30;99.90
11055;DHT22;5580;50.106;8.702;2023-05-14T14:25:00;19.30;99.90
11055;DHT22;5580;50.106;8.702;2023-05-14T14:27:25;19.30;99.90
11055;DHT22;5580;50.106;8.702;2023-05-14T14:29:51;19.30;99.90
11055;DHT22;5580;50.106;8.702;2023-05-14T14:32:17;19.30;99.90
11055;DHT22;5580;50.106;8.702;2023-05-14T14:34:43;19.20;99.90
11055;DHT22;5580;50.106;8.702;2023-05-14T14:37:08;19.20;99.90
11055;DHT22;5580;50.106;8.702;2023-05-14T14:39:34;19.30;99.90
11055;DHT22;5580;50.106;8.702;2023-05-14T14:41:59;19.30;99.90
11055;DHT22;5580;50.106;8.702;2023-05-14T14:44:25;19.30;99.90
11055;DHT22;5580;50.106;8.702;2023-05-14T14:46:50;19.40;99.90
11055;DHT22;5580;50.106;8.702;2023-05-14T14:49:16;19.40;99.90
11055;DHT22;5580;50.106;8.702;2023-05-14T14:51:42;19.30;99.90
11055;DHT22;5580;50.106;8.702;2023-05-14T14:54:07;19.30;99.90
11055;DHT22;5580;50.106;8.702;2023-05-14T14:56:33;19.40;99.90
11055;DHT22;5580;50.106;8.702;2023-05-14T14:58:59;19.40;99.90
11055;DHT22;5580;50.106;8.702;2023-05-14T15:01:25;19.40;99.90
11055;DHT22;5580;50.106;8.702;2023-05-14T15:03:51;19.40;99.90
11055;DHT22;5580;50.106;8.702;2023-05-14T15:06:16;19.40;99.90
11055;DHT22;5580;50.106;8.702;2023-05-14T15:08:42;19.40;99.90
11055;DHT22;5580;50.106;8.702;2023-05-14T15:11:08;19.50;99.90
11055;DHT22;5580;50.106;8.702;2023-05-14T15:13:33;19.50;99.90
11055;DHT22;5580;50.106;8.702;2023-05-14T15:15:59;19.60;99.90
11055;DHT22;5580;50.106;8.702;2023-05-14T15:18:25;19.70;99.90
11055;DHT22;5580;50.106;8.702;2023-05-14T15:20:50;19.70;99.90
11055;DHT22;5580;50.106;8.702;2023-05-14T15:23:17;19.70;99.90
11055;DHT22;5580;50.106;8.702;2023-05-14T15:25:43;19.60;99.90
11055;DHT22;5580;50.106;8.702;2023-05-14T15:28:08;19.60;99.90
11055;DHT22;5580;50.106;8.702;2023-05-14T15:30:34;19.60;99.90
11055;DHT22;5580;50.106;8.702;2023-05-14T15:33:00;19.60;99.90
11055;DHT22;5580;50.106;8.702;2023-05-14T15:35:26;19.70;99.90
11055;DHT22;5580;50.106;8.702;2023-05-14T15:37:53;19.70;99.90
11055;DHT22;5580;50.106;8.702;2023-05-14T15:40:19;19.80;99.90
11055;DHT22;5580;50.106;8.702;2023-05-14T15:42:45;19.80;99.90
11055;DHT22;5580;50.106;8.702;2023-05-14T15:45:11;19.70;99.90
11055;DHT22;5580;50.106;8.702;2023-05-14T15:47:37;19.50;99.90